SBOSBO GIB / LXGB
Speedbird OnlineSpeedbird Online GIB / LXGB

Gibraltar Airport
13:51 14°C

Location Gibraltar, Gibraltar
Latitude: 36.1511993408
Longitude: -5.3496599197400005
Web Wikipedia
Altitude 5 Meter / 15 Feet
Distance 1,762 KM / 1,095 Miles
from London.
Time Zone UTC +1 hours (Europe/Gibraltar)
Codes IATA: GIB
ICAO: LXGB
Currency £1 equals GIP 1.00
Runways
RunwayLength (m)Surface
091829Asphalt
271829Asphalt
Radio
TypeDescriptionFrequency
A/DAPP122.8
OPSGIB TALKDOWN130.4
TWRTWR131.2
Live ATC
METAR LXGB 311220Z 07010KT 9999 FEW027 14/08 Q1029 NOSIG RMK BLU BLU
TAF TAF LXGB 311025Z 3112/3121 08012KT 9999 FEW024
Weather As Of 31 Jan 2023 13:51
Description Few clouds
Wind 19 km/h from East (70°)
Cloud Cover 20%
Precipitation Rain: none, Snow: none
Sunrise 08:23
Sunset 18:45
Lounges Calpe Lounge , Main
Rotations During the last 90 days there were
77 flights from LHR
78 flights to LHR



Support Speedbird Online

© 2017-2023 Speedbird Online